createdAt,value
2023-02-06T00:00:49.874Z,12.60
2023-02-06T00:01:49.942Z,12.60
2023-02-06T00:02:49.983Z,12.80
2023-02-06T00:03:49.895Z,11.90
2023-02-06T00:04:49.838Z,13.10
2023-02-06T00:05:49.839Z,12.50
2023-02-06T00:06:49.786Z,13.10
2023-02-06T00:07:49.736Z,12.40
2023-02-06T00:08:49.884Z,12.00
2023-02-06T00:09:49.945Z,12.20
2023-02-06T00:10:49.808Z,11.80
2023-02-06T00:11:49.823Z,11.50
2023-02-06T00:12:49.838Z,11.20
2023-02-06T00:13:49.660Z,11.80
2023-02-06T00:14:49.804Z,11.70
2023-02-06T00:15:49.835Z,12.00
2023-02-06T00:16:49.784Z,12.20
2023-02-06T00:17:49.787Z,12.10
2023-02-06T00:18:49.872Z,11.70
2023-02-06T00:19:49.802Z,11.80
2023-02-06T00:20:49.743Z,11.50
2023-02-06T00:21:49.815Z,11.90
2023-02-06T00:22:49.750Z,10.90
2023-02-06T00:23:49.766Z,10.90
2023-02-06T00:24:49.775Z,11.20
2023-02-06T00:25:49.703Z,11.00
2023-02-06T00:26:49.710Z,9.80
2023-02-06T00:27:49.733Z,10.10
2023-02-06T00:28:49.704Z,10.30
2023-02-06T00:29:49.707Z,10.00
2023-02-06T00:30:49.895Z,10.00
2023-02-06T00:31:49.768Z,9.90
2023-02-06T00:32:49.741Z,10.60
2023-02-06T00:33:49.520Z,10.50
2023-02-06T00:34:49.729Z,10.30
2023-02-06T00:35:49.658Z,11.30
2023-02-06T00:36:49.664Z,10.80
2023-02-06T00:37:49.596Z,11.00
2023-02-06T00:38:49.602Z,10.40
2023-02-06T00:39:49.610Z,9.80
2023-02-06T00:40:49.618Z,9.70
2023-02-06T00:41:49.628Z,10.20
2023-02-06T00:42:49.551Z,9.70
2023-02-06T00:43:49.537Z,9.80
2023-02-06T00:44:49.526Z,9.90
2023-02-06T00:45:49.599Z,9.60
2023-02-06T00:46:49.593Z,10.20
2023-02-06T00:47:49.491Z,10.10
2023-02-06T00:48:49.478Z,11.10
2023-02-06T00:49:49.455Z,10.10
2023-02-06T00:50:49.513Z,10.50
2023-02-06T00:51:49.576Z,10.00
2023-02-06T00:52:49.458Z,10.70
2023-02-06T00:53:51.125Z,10.30
2023-02-06T00:54:49.454Z,10.60
2023-02-06T00:55:49.452Z,10.90
2023-02-06T00:56:49.437Z,10.60
2023-02-06T00:57:49.418Z,10.90
2023-02-06T00:58:49.407Z,10.80
2023-02-06T00:59:49.466Z,10.60
2023-02-06T01:00:49.362Z,11.00
2023-02-06T01:01:49.453Z,11.00
2023-02-06T01:02:49.492Z,10.80
2023-02-06T01:03:49.333Z,10.80
2023-02-06T01:04:49.351Z,10.70
2023-02-06T01:05:49.255Z,11.40
2023-02-06T01:06:49.281Z,11.10
2023-02-06T01:07:49.291Z,11.40
2023-02-06T01:08:49.119Z,11.40
2023-02-06T01:09:49.226Z,11.10
2023-02-06T01:10:49.252Z,11.90
2023-02-06T01:11:49.255Z,11.90
2023-02-06T01:12:49.234Z,12.20
2023-02-06T01:13:49.310Z,11.60
2023-02-06T01:14:49.217Z,12.10
2023-02-06T01:15:51.130Z,12.10
2023-02-06T01:16:49.186Z,11.60
2023-02-06T01:17:49.172Z,12.40
2023-02-06T01:18:49.074Z,11.40
2023-02-06T01:19:49.100Z,11.70
2023-02-06T01:20:49.128Z,11.80
2023-02-06T01:21:49.139Z,11.10
2023-02-06T01:22:49.128Z,11.20
2023-02-06T01:23:49.068Z,11.00
2023-02-06T01:24:49.156Z,11.10
2023-02-06T01:25:49.097Z,10.70
2023-02-06T01:26:49.122Z,11.00
2023-02-06T01:27:49.102Z,11.10
2023-02-06T01:28:49.057Z,11.40
2023-02-06T01:29:49.178Z,10.90
2023-02-06T01:30:49.111Z,11.50
2023-02-06T01:31:49.096Z,11.40
2023-02-06T01:32:48.815Z,11.80
2023-02-06T01:33:49.033Z,11.50
2023-02-06T01:34:49.040Z,12.10
2023-02-06T01:35:49.109Z,12.50
2023-02-06T01:36:49.007Z,12.10
2023-02-06T01:37:48.918Z,12.30
2023-02-06T01:38:48.972Z,11.90
2023-02-06T01:39:49.021Z,12.20
2023-02-06T01:40:49.009Z,12.30
2023-02-06T01:41:48.989Z,12.50
2023-02-06T01:42:48.979Z,12.60
2023-02-06T01:43:48.961Z,13.10
2023-02-06T01:44:49.019Z,13.20
2023-02-06T01:45:48.997Z,12.90
2023-02-06T01:46:48.913Z,13.00
2023-02-06T01:47:48.944Z,13.60
2023-02-06T01:48:48.859Z,13.60
2023-02-06T01:49:48.684Z,12.60
2023-02-06T01:50:48.866Z,12.50
2023-02-06T01:51:48.881Z,12.80
2023-02-06T01:52:48.810Z,13.60
2023-02-06T01:53:48.890Z,13.30
2023-02-06T01:54:48.797Z,12.90
2023-02-06T01:55:48.807Z,12.80
2023-02-06T01:56:48.802Z,12.50
2023-02-06T01:57:48.732Z,12.90
2023-02-06T01:58:48.740Z,12.80
2023-02-06T01:59:48.551Z,13.50
2023-02-06T02:00:48.802Z,12.90
2023-02-06T02:01:48.831Z,13.00
2023-02-06T02:02:48.773Z,14.10
2023-02-06T02:03:48.816Z,13.70
2023-02-06T02:04:48.687Z,13.20
2023-02-06T02:05:48.733Z,13.20
2023-02-06T02:06:48.690Z,13.10
2023-02-06T02:07:48.589Z,13.10
2023-02-06T02:08:48.611Z,12.80
2023-02-06T02:09:48.649Z,13.00
2023-02-06T02:10:48.653Z,13.20
2023-02-06T02:11:48.662Z,13.10
2023-02-06T02:12:48.563Z,13.20
2023-02-06T02:13:48.585Z,13.00
2023-02-06T02:14:48.422Z,13.40
2023-02-06T02:15:48.528Z,13.10
2023-02-06T02:16:48.531Z,12.10
2023-02-06T02:17:48.538Z,13.10
2023-02-06T02:18:48.551Z,12.90
2023-02-06T02:19:48.566Z,13.10
2023-02-06T02:20:48.499Z,13.70
2023-02-06T02:21:48.523Z,13.80
2023-02-06T02:22:48.460Z,14.10
2023-02-06T02:23:48.470Z,13.90
2023-02-06T02:24:48.480Z,13.80
2023-02-06T02:25:48.571Z,14.50
2023-02-06T02:26:48.489Z,14.60
2023-02-06T02:27:48.506Z,14.20
2023-02-06T02:28:48.485Z,14.00
2023-02-06T02:29:48.492Z,14.90
2023-02-06T02:30:48.450Z,14.40
2023-02-06T02:31:48.600Z,14.30
2023-02-06T02:32:48.461Z,14.30
2023-02-06T02:33:48.386Z,14.30
2023-02-06T02:34:48.400Z,14.20
2023-02-06T02:35:48.414Z,13.60
2023-02-06T02:36:48.484Z,14.20
2023-02-06T02:37:48.400Z,13.60
2023-02-06T02:38:48.396Z,13.50
2023-02-06T02:39:48.400Z,13.50
2023-02-06T02:40:48.317Z,13.30
2023-02-06T02:41:48.389Z,12.70
2023-02-06T02:42:48.301Z,13.70
2023-02-06T02:43:48.301Z,13.20
2023-02-06T02:44:48.290Z,12.80
2023-02-06T02:45:48.299Z,12.80
2023-02-06T02:46:48.355Z,12.50
2023-02-06T02:47:48.262Z,13.20
2023-02-06T02:48:48.329Z,11.80
2023-02-06T02:49:48.239Z,12.50
2023-02-06T02:50:48.236Z,12.20
2023-02-06T02:51:48.301Z,12.10
2023-02-06T02:52:48.213Z,12.20
2023-02-06T02:53:48.186Z,12.80
2023-02-06T02:54:48.181Z,12.60
2023-02-06T02:55:48.169Z,12.40
2023-02-06T02:56:48.169Z,12.80
2023-02-06T02:57:48.216Z,12.30
2023-02-06T02:58:48.137Z,12.50
2023-02-06T02:59:48.141Z,12.60
2023-02-06T03:00:48.197Z,12.10
2023-02-06T03:01:48.287Z,12.10
2023-02-06T03:02:48.210Z,12.50
2023-02-06T03:03:48.141Z,12.60
2023-02-06T03:04:48.145Z,12.80
2023-02-06T03:05:48.083Z,11.70
2023-02-06T03:06:48.100Z,12.80
2023-02-06T03:07:48.098Z,12.40
2023-02-06T03:08:48.105Z,13.30
2023-02-06T03:09:48.042Z,12.30
2023-02-06T03:10:48.091Z,12.60
2023-02-06T03:11:47.915Z,13.10
2023-02-06T03:12:47.909Z,13.80
2023-02-06T03:13:47.906Z,12.60
2023-02-06T03:14:48.043Z,12.50
2023-02-06T03:15:47.886Z,13.20
2023-02-06T03:16:48.128Z,13.60
2023-02-06T03:17:48.019Z,13.20
2023-02-06T03:18:47.938Z,14.00
2023-02-06T03:19:47.938Z,13.10
2023-02-06T03:20:47.965Z,13.30
2023-02-06T03:21:47.965Z,13.20
2023-02-06T03:22:47.858Z,13.50
2023-02-06T03:23:47.859Z,13.20
2023-02-06T03:24:47.861Z,13.20
2023-02-06T03:25:47.996Z,12.20
2023-02-06T03:26:47.874Z,12.20
2023-02-06T03:27:47.936Z,11.80
2023-02-06T03:28:47.804Z,11.90
2023-02-06T03:29:47.809Z,11.80
2023-02-06T03:30:47.939Z,11.00
2023-02-06T03:31:47.892Z,11.00
2023-02-06T03:32:47.792Z,11.10
2023-02-06T03:33:47.731Z,11.20
2023-02-06T03:34:47.752Z,10.60
2023-02-06T03:35:47.854Z,11.00
2023-02-06T03:36:47.714Z,11.00
2023-02-06T03:37:47.724Z,11.00
2023-02-06T03:38:47.742Z,11.30
2023-02-06T03:39:47.765Z,11.00
2023-02-06T03:40:47.859Z,10.50
2023-02-06T03:41:47.709Z,10.70
2023-02-06T03:42:47.734Z,10.90
2023-02-06T03:43:47.737Z,10.40
2023-02-06T03:44:47.668Z,10.80
2023-02-06T03:45:47.745Z,10.90
2023-02-06T03:46:47.769Z,10.50
2023-02-06T03:47:47.686Z,10.70
2023-02-06T03:48:47.684Z,11.30
2023-02-06T03:49:47.615Z,10.20
2023-02-06T03:50:47.700Z,10.70
2023-02-06T03:51:47.617Z,10.50
2023-02-06T03:52:47.633Z,10.40
2023-02-06T03:53:47.631Z,9.90
2023-02-06T03:54:47.630Z,9.90
2023-02-06T03:55:47.711Z,10.00
2023-02-06T03:56:47.616Z,9.80
2023-02-06T03:57:47.614Z,9.90
2023-02-06T03:58:47.596Z,9.60
2023-02-06T03:59:47.578Z,9.90
2023-02-06T04:00:47.515Z,10.90
2023-02-06T04:01:47.641Z,10.50
2023-02-06T04:02:47.524Z,10.00
2023-02-06T04:03:47.505Z,10.60
2023-02-06T04:04:47.514Z,9.80
2023-02-06T04:05:47.594Z,10.00
2023-02-06T04:06:47.454Z,10.50
2023-02-06T04:07:47.467Z,10.40
2023-02-06T04:08:47.498Z,10.40
2023-02-06T04:09:47.447Z,10.60
2023-02-06T04:10:47.467Z,11.20
2023-02-06T04:11:47.488Z,10.50
2023-02-06T04:12:47.414Z,11.20
2023-02-06T04:13:47.406Z,10.60
2023-02-06T04:14:47.518Z,11.20
2023-02-06T04:15:47.363Z,11.20
2023-02-06T04:16:47.414Z,11.50
2023-02-06T04:17:59.591Z,10.80
2023-02-06T04:18:47.337Z,11.40
2023-02-06T04:19:47.400Z,11.80
2023-02-06T04:20:47.328Z,11.80
2023-02-06T04:21:47.350Z,11.50
2023-02-06T04:22:47.367Z,11.90
2023-02-06T04:23:47.392Z,11.60
2023-02-06T04:24:47.254Z,11.90
2023-02-06T04:25:47.285Z,11.90
2023-02-06T04:26:47.322Z,11.30
2023-02-06T04:27:47.299Z,11.40
2023-02-06T04:28:47.254Z,11.60
2023-02-06T04:29:47.202Z,11.90
2023-02-06T04:30:47.420Z,11.40
2023-02-06T04:31:47.207Z,11.60
2023-02-06T04:32:47.220Z,12.00
2023-02-06T04:33:47.163Z,11.70
2023-02-06T04:34:47.193Z,11.50
2023-02-06T04:35:47.307Z,12.40
2023-02-06T04:36:46.979Z,11.80
2023-02-06T04:37:47.173Z,12.00
2023-02-06T04:38:47.190Z,12.30
2023-02-06T04:39:47.135Z,12.20
2023-02-06T04:40:47.072Z,12.10
2023-02-06T04:41:47.104Z,12.00
2023-02-06T04:42:47.133Z,11.60
2023-02-06T04:43:47.144Z,12.10
2023-02-06T04:44:47.098Z,11.60
2023-02-06T04:45:47.175Z,12.10
2023-02-06T04:46:47.156Z,11.90
2023-02-06T04:47:47.057Z,11.80
2023-02-06T04:48:47.046Z,12.10
2023-02-06T04:49:46.879Z,11.70
2023-02-06T04:50:47.038Z,11.70
2023-02-06T04:51:47.043Z,12.00
2023-02-06T04:52:47.133Z,11.90
2023-02-06T04:53:46.815Z,12.00
2023-02-06T04:54:46.760Z,12.30
2023-02-06T04:55:47.009Z,11.60
2023-02-06T04:56:46.781Z,11.10
2023-02-06T04:57:46.780Z,12.10
2023-02-06T04:58:47.036Z,11.70
2023-02-06T04:59:46.977Z,11.30
2023-02-06T05:00:46.725Z,11.30
2023-02-06T05:01:46.835Z,11.50
2023-02-06T05:02:46.966Z,12.00
2023-02-06T05:03:46.949Z,11.80
2023-02-06T05:04:46.887Z,12.00
2023-02-06T05:05:46.861Z,11.60
2023-02-06T05:06:46.845Z,11.90
2023-02-06T05:07:46.847Z,11.20
2023-02-06T05:08:46.858Z,11.30
2023-02-06T05:09:46.862Z,11.30
2023-02-06T05:10:46.696Z,11.50
2023-02-06T05:11:46.823Z,11.30
2023-02-06T05:12:46.766Z,11.40
2023-02-06T05:13:46.724Z,11.70
2023-02-06T05:14:46.761Z,11.70
2023-02-06T05:15:46.779Z,11.70
2023-02-06T05:16:46.725Z,10.90
2023-02-06T05:17:46.724Z,11.30
2023-02-06T05:18:46.517Z,11.50
2023-02-06T05:19:46.917Z,11.20
2023-02-06T05:20:46.687Z,11.30
2023-02-06T05:21:46.703Z,11.50
2023-02-06T05:22:46.718Z,11.40
2023-02-06T05:23:46.649Z,10.90
2023-02-06T05:24:46.736Z,11.40
2023-02-06T05:25:46.686Z,11.60
2023-02-06T05:26:46.647Z,11.20
2023-02-06T05:27:46.544Z,11.80
2023-02-06T05:28:46.560Z,11.30
2023-02-06T05:29:46.457Z,12.10
2023-02-06T05:30:46.516Z,11.40
2023-02-06T05:31:46.608Z,12.00
2023-02-06T05:32:46.380Z,11.60
2023-02-06T05:33:46.387Z,11.80
2023-02-06T05:34:46.501Z,11.60
2023-02-06T05:35:46.525Z,11.80
2023-02-06T05:36:46.553Z,11.70
2023-02-06T05:37:46.511Z,11.90
2023-02-06T05:38:46.467Z,11.80
2023-02-06T05:39:46.513Z,11.90
2023-02-06T05:40:46.373Z,11.70
2023-02-06T05:41:46.440Z,12.00
2023-02-06T05:42:46.519Z,12.00
2023-02-06T05:43:46.506Z,12.00
2023-02-06T05:44:46.466Z,11.70
2023-02-06T05:45:46.344Z,11.60
2023-02-06T05:46:46.271Z,12.20
2023-02-06T05:47:46.340Z,11.70
2023-02-06T05:48:46.311Z,11.80
2023-02-06T05:49:46.223Z,12.10
2023-02-06T05:50:46.258Z,12.50
2023-02-06T05:51:46.351Z,12.00
2023-02-06T05:52:46.446Z,12.70
2023-02-06T05:53:46.471Z,12.50
2023-02-06T05:54:46.268Z,12.30
2023-02-06T05:55:46.169Z,12.20
2023-02-06T05:56:46.341Z,12.20
2023-02-06T05:57:46.354Z,11.80
2023-02-06T05:58:46.343Z,12.40
2023-02-06T05:59:46.320Z,12.40
2023-02-06T06:00:46.081Z,12.50
2023-02-06T06:01:46.210Z,12.10
2023-02-06T06:02:46.290Z,12.30
2023-02-06T06:03:46.387Z,13.40
2023-02-06T06:04:46.297Z,12.00
2023-02-06T06:05:46.227Z,12.30
2023-02-06T06:06:46.203Z,11.90
2023-02-06T06:07:46.270Z,12.70
2023-02-06T06:08:46.291Z,13.00
2023-02-06T06:09:46.209Z,11.50
2023-02-06T06:10:46.213Z,12.30
2023-02-06T06:11:46.170Z,12.00
2023-02-06T06:12:45.981Z,12.60
2023-02-06T06:13:46.249Z,12.30
2023-02-06T06:14:45.980Z,12.60
2023-02-06T06:15:46.192Z,12.50
2023-02-06T06:16:46.151Z,12.50
2023-02-06T06:17:45.961Z,12.30
2023-02-06T06:18:46.219Z,12.00
2023-02-06T06:19:45.878Z,11.60
2023-02-06T06:20:46.126Z,11.30
2023-02-06T06:21:45.984Z,12.20
2023-02-06T06:22:46.007Z,11.40
2023-02-06T06:23:45.956Z,11.50
2023-02-06T06:24:46.066Z,11.00
2023-02-06T06:25:46.012Z,11.60
2023-02-06T06:26:45.965Z,11.10
2023-02-06T06:27:46.023Z,10.70
2023-02-06T06:28:46.022Z,10.30
2023-02-06T06:29:45.781Z,10.70
2023-02-06T06:30:45.958Z,10.40
2023-02-06T06:31:45.917Z,11.00
2023-02-06T06:32:45.926Z,10.90
2023-02-06T06:33:45.949Z,10.30
2023-02-06T06:34:45.930Z,10.30
2023-02-06T06:35:45.934Z,10.30
2023-02-06T06:36:45.666Z,9.90
2023-02-06T06:37:45.925Z,10.60
2023-02-06T06:38:45.751Z,10.90
2023-02-06T06:39:45.647Z,11.10
2023-02-06T06:40:45.670Z,10.30
2023-02-06T06:41:45.876Z,10.30
2023-02-06T06:42:45.654Z,11.20
2023-02-06T06:43:45.799Z,11.30
2023-02-06T06:44:45.586Z,11.10
2023-02-06T06:45:45.633Z,10.60
2023-02-06T06:46:45.827Z,10.80
2023-02-06T06:47:45.680Z,10.50
2023-02-06T06:48:45.688Z,10.30
2023-02-06T06:49:45.697Z,10.30
2023-02-06T06:50:45.572Z,11.20
2023-02-06T06:51:45.709Z,10.90
2023-02-06T06:52:45.712Z,10.90
2023-02-06T06:53:45.695Z,11.20
2023-02-06T06:54:45.520Z,10.80
2023-02-06T06:55:45.716Z,11.20
2023-02-06T06:56:45.677Z,10.60
2023-02-06T06:57:45.661Z,11.10
2023-02-06T06:58:45.640Z,11.00
2023-02-06T06:59:45.630Z,10.70
2023-02-06T07:00:45.919Z,11.20
2023-02-06T07:01:45.575Z,10.40
2023-02-06T07:02:45.605Z,11.00
2023-02-06T07:03:45.550Z,11.20
2023-02-06T07:04:45.805Z,11.00
2023-02-06T07:05:45.794Z,11.20
2023-02-06T07:06:45.512Z,11.00
2023-02-06T07:07:45.381Z,11.20
2023-02-06T07:08:45.788Z,11.40
2023-02-06T07:09:45.331Z,11.50
2023-02-06T07:10:45.549Z,11.30
2023-02-06T07:11:45.565Z,11.00
2023-02-06T07:12:45.581Z,10.90
2023-02-06T07:13:45.577Z,10.80
2023-02-06T07:14:45.333Z,10.90
2023-02-06T07:15:45.306Z,10.70
2023-02-06T07:16:45.351Z,10.90
2023-02-06T07:17:45.283Z,11.10
2023-02-06T07:18:45.365Z,11.50
2023-02-06T07:19:45.296Z,11.10
2023-02-06T07:20:45.263Z,10.80
2023-02-06T07:21:45.371Z,10.70
2023-02-06T07:22:45.389Z,11.40
2023-02-06T07:23:45.202Z,11.00
2023-02-06T07:24:45.549Z,10.50
2023-02-06T07:25:45.188Z,10.20
2023-02-06T07:26:45.195Z,10.70
2023-02-06T07:27:45.220Z,10.10
2023-02-06T07:28:45.174Z,10.60
2023-02-06T07:29:45.153Z,10.70
2023-02-06T07:30:45.251Z,10.20
2023-02-06T07:31:45.233Z,10.00
2023-02-06T07:32:45.104Z,10.30
2023-02-06T07:33:45.127Z,9.60
2023-02-06T07:34:45.107Z,10.40
2023-02-06T07:35:45.073Z,10.20
2023-02-06T07:36:45.288Z,10.10
2023-02-06T07:37:45.287Z,10.40
2023-02-06T07:38:45.131Z,9.60
2023-02-06T07:39:45.269Z,9.80
2023-02-06T07:40:45.892Z,9.70
2023-02-06T07:41:45.266Z,9.90
2023-02-06T07:42:45.262Z,9.90
2023-02-06T07:43:45.270Z,9.90
2023-02-06T07:44:45.283Z,9.60
2023-02-06T07:45:45.314Z,9.40
2023-02-06T07:46:45.321Z,9.40
2023-02-06T07:47:45.065Z,8.90
2023-02-06T07:48:45.359Z,9.00
2023-02-06T07:49:45.105Z,9.10
2023-02-06T07:50:45.096Z,9.10
2023-02-06T07:51:45.112Z,9.20
2023-02-06T07:52:45.024Z,9.00
2023-02-06T07:53:45.139Z,9.00
2023-02-06T07:54:45.141Z,9.30
2023-02-06T07:55:45.163Z,9.30
2023-02-06T07:56:44.905Z,8.80
2023-02-06T07:57:45.185Z,9.20
2023-02-06T07:58:45.195Z,9.40
2023-02-06T07:59:44.892Z,9.40
2023-02-06T08:00:45.966Z,8.90
2023-02-06T08:01:44.862Z,8.90
2023-02-06T08:02:45.113Z,8.60
2023-02-06T08:03:44.915Z,9.00
2023-02-06T08:04:44.818Z,8.80
2023-02-06T08:05:44.803Z,8.80
2023-02-06T08:06:44.788Z,9.40
2023-02-06T08:07:44.777Z,8.30
2023-02-06T08:08:44.967Z,8.70
2023-02-06T08:09:44.734Z,9.20
2023-02-06T08:10:44.806Z,8.90
2023-02-06T08:11:44.739Z,9.10
2023-02-06T08:12:44.968Z,8.80
2023-02-06T08:13:44.889Z,8.50
2023-02-06T08:14:44.982Z,9.20
2023-02-06T08:15:44.693Z,9.00
2023-02-06T08:16:45.051Z,9.00
2023-02-06T08:17:44.874Z,9.00
2023-02-06T08:18:44.690Z,9.00
2023-02-06T08:19:44.619Z,8.30
2023-02-06T08:20:44.912Z,8.90
2023-02-06T08:21:44.913Z,8.90
2023-02-06T08:22:44.918Z,8.60
2023-02-06T08:23:44.930Z,8.50
2023-02-06T08:24:44.875Z,8.30
2023-02-06T08:25:44.860Z,8.60
2023-02-06T08:26:44.852Z,8.30
2023-02-06T08:27:44.843Z,8.60
2023-02-06T08:28:44.584Z,8.50
2023-02-06T08:29:44.765Z,8.60
2023-02-06T08:30:44.655Z,8.10
2023-02-06T08:31:44.836Z,8.90
2023-02-06T08:32:44.536Z,8.30
2023-02-06T08:33:44.478Z,8.80
2023-02-06T08:34:44.514Z,8.90
2023-02-06T08:35:44.820Z,8.80
2023-02-06T08:36:44.831Z,9.30
2023-02-06T08:37:44.849Z,9.20
2023-02-06T08:38:44.609Z,8.80
2023-02-06T08:39:44.591Z,8.80
2023-02-06T08:40:44.567Z,8.90
2023-02-06T08:41:44.547Z,8.90
2023-02-06T08:42:44.741Z,8.70
2023-02-06T08:43:44.721Z,8.50
2023-02-06T08:44:44.698Z,8.10
2023-02-06T08:45:44.578Z,8.80
2023-02-06T08:46:44.368Z,8.60
2023-02-06T08:47:44.357Z,8.70
2023-02-06T08:48:44.581Z,9.30
2023-02-06T08:49:44.741Z,8.80
2023-02-06T08:50:44.490Z,8.70
2023-02-06T08:51:44.505Z,9.10
2023-02-06T08:52:44.302Z,8.50
2023-02-06T08:53:44.473Z,8.50
2023-02-06T08:54:44.349Z,8.90
2023-02-06T08:55:44.264Z,8.60
2023-02-06T08:56:44.264Z,9.40
2023-02-06T08:57:44.393Z,9.40
2023-02-06T08:58:44.376Z,9.40
2023-02-06T08:59:44.598Z,8.80
2023-02-06T09:00:44.351Z,9.10
2023-02-06T09:01:44.430Z,9.20
2023-02-06T09:02:44.453Z,9.40
2023-02-06T09:03:44.416Z,9.70
2023-02-06T09:04:44.450Z,9.50
2023-02-06T09:05:44.199Z,8.70
2023-02-06T09:06:44.474Z,9.60
2023-02-06T09:07:44.496Z,8.50
2023-02-06T09:08:44.499Z,8.10
2023-02-06T09:09:44.487Z,8.20
2023-02-06T09:10:44.490Z,8.30
2023-02-06T09:11:44.478Z,8.70
2023-02-06T09:12:44.452Z,8.50
2023-02-06T09:13:44.187Z,8.50
2023-02-06T09:14:44.452Z,9.00
2023-02-06T09:15:44.471Z,8.60
2023-02-06T09:16:44.452Z,8.00
2023-02-06T09:17:44.185Z,8.10
2023-02-06T09:18:44.191Z,8.90
2023-02-06T09:19:44.056Z,8.40
2023-02-06T09:20:44.161Z,8.00
2023-02-06T09:21:44.424Z,7.60
2023-02-06T09:22:44.045Z,7.20
2023-02-06T09:23:44.001Z,8.00
2023-02-06T09:24:44.228Z,7.40
2023-02-06T09:25:43.959Z,6.70
2023-02-06T09:26:58.616Z,6.60
2023-02-06T09:27:44.057Z,6.70
2023-02-06T09:28:44.037Z,7.20
2023-02-06T09:29:43.948Z,5.40
2023-02-06T09:30:44.015Z,5.30
2023-02-06T09:31:43.957Z,5.00
2023-02-06T09:32:43.922Z,5.00
2023-02-06T09:33:44.071Z,4.70
2023-02-06T09:34:44.066Z,5.90
2023-02-06T09:35:43.887Z,5.70
2023-02-06T09:36:44.067Z,6.20
2023-02-06T09:37:43.916Z,6.90
2023-02-06T09:38:43.908Z,6.40
2023-02-06T09:39:43.814Z,7.00
2023-02-06T09:40:44.050Z,6.60
2023-02-06T09:41:43.921Z,6.80
2023-02-06T09:42:44.023Z,6.50
2023-02-06T09:43:43.833Z,6.40
2023-02-06T09:44:43.752Z,6.20
2023-02-06T09:45:43.740Z,6.80
2023-02-06T09:46:43.802Z,6.50
2023-02-06T09:47:45.757Z,6.60
2023-02-06T09:48:43.977Z,6.90
2023-02-06T09:49:43.718Z,6.60
2023-02-06T09:50:43.844Z,6.70
2023-02-06T09:51:43.702Z,6.20
2023-02-06T09:52:43.708Z,5.90
2023-02-06T09:53:43.861Z,5.80
2023-02-06T09:54:43.683Z,6.30
2023-02-06T09:55:43.850Z,6.30
2023-02-06T09:56:43.674Z,6.20
2023-02-06T09:57:43.661Z,5.80
2023-02-06T09:58:43.632Z,6.00
2023-02-06T09:59:43.816Z,6.10
2023-02-06T10:00:43.842Z,5.80
2023-02-06T10:01:43.746Z,6.30
2023-02-06T10:02:43.715Z,5.90
2023-02-06T10:03:43.869Z,6.10
2023-02-06T10:04:43.809Z,6.10
2023-02-06T10:05:43.847Z,6.30
2023-02-06T10:06:43.875Z,6.50
2023-02-06T10:07:43.880Z,6.90
2023-02-06T10:08:43.753Z,6.80
2023-02-06T10:09:43.536Z,6.90
2023-02-06T10:10:43.551Z,6.70
2023-02-06T10:11:43.540Z,6.20
2023-02-06T10:12:43.841Z,6.60
2023-02-06T10:13:43.721Z,6.20
2023-02-06T10:14:43.479Z,6.00
2023-02-06T10:15:43.492Z,6.00
2023-02-06T10:16:43.480Z,6.20
2023-02-06T10:17:43.525Z,6.00
2023-02-06T10:18:43.460Z,6.10
2023-02-06T10:19:43.432Z,5.80
2023-02-06T10:20:43.690Z,5.70
2023-02-06T10:21:43.720Z,5.20
2023-02-06T10:22:43.434Z,5.60
2023-02-06T10:23:44.679Z,5.60
2023-02-06T10:24:43.382Z,4.80
2023-02-06T10:25:43.401Z,4.60
2023-02-06T10:26:43.392Z,4.80
2023-02-06T10:27:43.716Z,4.90
2023-02-06T10:28:43.777Z,4.70
2023-02-06T10:29:43.519Z,4.80
2023-02-06T10:30:43.487Z,5.00
2023-02-06T10:31:43.407Z,4.90
2023-02-06T10:32:43.445Z,5.00
2023-02-06T10:33:43.325Z,5.40
2023-02-06T10:34:43.653Z,6.00
2023-02-06T10:35:43.285Z,5.60
2023-02-06T10:36:45.816Z,5.60
2023-02-06T10:37:43.542Z,5.50
2023-02-06T10:38:43.297Z,5.30
2023-02-06T10:39:43.399Z,5.30
2023-02-06T10:40:43.516Z,5.70
2023-02-06T10:41:43.480Z,5.20
2023-02-06T10:42:43.220Z,5.10
2023-02-06T10:43:43.717Z,5.50
2023-02-06T10:44:51.058Z,5.10
2023-02-06T10:45:43.300Z,5.60
2023-02-06T10:46:43.392Z,5.30
2023-02-06T10:47:43.374Z,4.90
2023-02-06T10:48:43.363Z,4.70
2023-02-06T10:49:43.364Z,4.90
2023-02-06T10:50:43.351Z,5.00
2023-02-06T10:51:43.326Z,5.20
2023-02-06T10:52:43.312Z,4.90
2023-02-06T10:53:43.283Z,5.00
2023-02-06T10:54:43.254Z,5.30
2023-02-06T10:55:44.581Z,5.00
2023-02-06T10:56:43.330Z,4.80
2023-02-06T10:57:43.060Z,5.10
2023-02-06T10:58:43.044Z,5.00
2023-02-06T10:59:43.213Z,4.90
2023-02-06T11:00:43.264Z,5.10
2023-02-06T11:01:43.360Z,5.10
2023-02-06T11:02:43.364Z,5.00
2023-02-06T11:03:43.165Z,5.30
2023-02-06T11:04:43.196Z,4.50
2023-02-06T11:05:43.234Z,4.90
2023-02-06T11:06:43.268Z,4.80
2023-02-06T11:07:43.286Z,4.90
2023-02-06T11:08:43.292Z,4.30
2023-02-06T11:09:42.938Z,5.60
2023-02-06T11:10:43.281Z,5.20
2023-02-06T11:11:42.897Z,5.20
2023-02-06T11:12:42.889Z,5.20
2023-02-06T11:13:42.874Z,5.30
2023-02-06T11:14:42.888Z,5.20
2023-02-06T11:15:42.993Z,5.40
2023-02-06T11:16:43.059Z,5.10
2023-02-06T11:17:43.025Z,5.50
2023-02-06T11:18:43.052Z,4.60
2023-02-06T11:19:42.976Z,5.00
2023-02-06T11:20:43.187Z,5.00
2023-02-06T11:21:43.102Z,4.80
2023-02-06T11:22:52.303Z,5.80
2023-02-06T11:23:42.818Z,5.40
2023-02-06T11:24:42.792Z,5.70
2023-02-06T11:25:42.786Z,5.50
2023-02-06T11:26:42.791Z,5.50
2023-02-06T11:27:44.316Z,5.10
2023-02-06T11:28:42.754Z,5.30
2023-02-06T11:29:42.928Z,5.60
2023-02-06T11:30:42.802Z,5.40
2023-02-06T11:31:43.394Z,5.20
2023-02-06T11:32:45.028Z,5.30
2023-02-06T11:33:43.029Z,5.60
2023-02-06T11:34:42.882Z,5.20
2023-02-06T11:35:42.995Z,5.70
2023-02-06T11:36:42.751Z,5.20
2023-02-06T11:37:42.988Z,5.50
2023-02-06T11:38:42.774Z,5.40
2023-02-06T11:39:42.714Z,6.00
2023-02-06T11:40:42.783Z,5.60
2023-02-06T11:41:42.780Z,5.60
2023-02-06T11:42:42.781Z,6.30
2023-02-06T11:43:42.777Z,6.00
2023-02-06T11:44:42.781Z,5.80
2023-02-06T11:45:42.778Z,6.30
2023-02-06T11:46:42.754Z,6.80
2023-02-06T11:47:42.783Z,6.90
2023-02-06T11:48:42.674Z,6.50
2023-02-06T11:49:42.695Z,6.80
2023-02-06T11:50:42.716Z,6.80
2023-02-06T11:51:42.848Z,6.60
2023-02-06T11:52:42.631Z,6.60
2023-02-06T11:53:42.749Z,6.60
2023-02-06T11:54:42.765Z,6.70
2023-02-06T11:55:42.651Z,6.40
2023-02-06T11:56:42.616Z,6.20
2023-02-06T11:57:42.462Z,6.20
2023-02-06T11:58:42.575Z,6.60
2023-02-06T11:59:42.550Z,6.30
2023-02-06T12:00:42.420Z,6.50
2023-02-06T12:01:42.529Z,6.30
2023-02-06T12:02:42.753Z,6.30
2023-02-06T12:03:42.588Z,6.40
2023-02-06T12:04:42.516Z,6.50
2023-02-06T12:05:42.530Z,6.50
2023-02-06T12:06:42.547Z,6.40
2023-02-06T12:07:42.548Z,6.60
2023-02-06T12:08:42.555Z,6.30
2023-02-06T12:09:42.470Z,6.30
2023-02-06T12:10:42.507Z,6.40
2023-02-06T12:11:42.494Z,6.50
2023-02-06T12:12:42.484Z,6.90
2023-02-06T12:13:42.466Z,6.10
2023-02-06T12:14:42.587Z,6.60
2023-02-06T12:15:46.830Z,6.00
2023-02-06T12:16:42.499Z,6.40
2023-02-06T12:17:42.496Z,6.50
2023-02-06T12:18:42.510Z,6.60
2023-02-06T12:19:42.494Z,7.10
2023-02-06T12:20:42.497Z,6.90
2023-02-06T12:21:42.516Z,6.40
2023-02-06T12:22:42.451Z,6.30
2023-02-06T12:23:42.424Z,7.10
2023-02-06T12:24:42.398Z,6.70
2023-02-06T12:25:42.378Z,6.80
2023-02-06T12:26:42.389Z,6.30
2023-02-06T12:27:42.376Z,6.80
2023-02-06T12:28:42.377Z,6.30
2023-02-06T12:29:42.230Z,6.80
2023-02-06T12:30:42.431Z,6.90
2023-02-06T12:31:42.503Z,7.10
2023-02-06T12:32:42.216Z,7.20
2023-02-06T12:33:42.381Z,7.20
2023-02-06T12:34:42.232Z,7.10
2023-02-06T12:35:42.405Z,7.90
2023-02-06T12:36:42.174Z,7.80
2023-02-06T12:37:42.431Z,8.00
2023-02-06T12:38:42.210Z,8.00
2023-02-06T12:39:42.231Z,7.90
2023-02-06T12:40:42.239Z,8.60
2023-02-06T12:41:42.259Z,7.90
2023-02-06T12:42:42.261Z,8.40
2023-02-06T12:43:41.993Z,8.00
2023-02-06T12:44:41.984Z,7.90
2023-02-06T12:45:42.247Z,7.80
2023-02-06T12:46:42.236Z,7.70
2023-02-06T12:47:42.226Z,7.70
2023-02-06T12:48:43.284Z,7.40
2023-02-06T12:49:41.904Z,7.70
2023-02-06T12:50:41.903Z,7.40
2023-02-06T12:51:41.905Z,8.30
2023-02-06T12:52:41.916Z,7.60
2023-02-06T12:53:42.095Z,8.00
2023-02-06T12:54:41.858Z,7.60
2023-02-06T12:55:42.069Z,7.50
2023-02-06T12:56:41.867Z,7.20
2023-02-06T12:57:42.017Z,7.30
2023-02-06T12:58:41.990Z,7.80
2023-02-06T12:59:56.673Z,7.70
2023-02-06T13:00:41.952Z,7.30
2023-02-06T13:01:41.816Z,7.70
2023-02-06T13:02:41.841Z,7.00
2023-02-06T13:03:41.968Z,7.30